WEATHER DATA

YESTERDAY
Time Temp. Dewp. Hum. Bar.
00:05 2.7 -0.8 77 1032.1
00:16 2.6 -0.7 78 1032.1
00:25 2.5 -0.8 78 1032.1
00:34 2.4 -0.9 78 1031.9
00:46 2.3 -1 78 1031.9
00:55 2.2 -1.1 78 1031.8
01:06 2.1 -1 79 1031.8
01:16 2 -1.1 79 1031.6
01:26 1.9 -1.2 79 1031.7
01:36 1.8 -1.1 80 1031.6
01:46 1.7 -1.2 80 1031.6
01:56 1.6 -1.3 80 1031.7
02:06 1.6 -1.3 80 1031.8
02:16 1.4 -1.5 80 1031.8
02:36 1.3 -1.4 81 1031.6
02:47 1.2 -1.5 81 1031.4
02:57 1.1 -1.6 81 1031.4
03:07 1.1 -1.6 81 1031.4
03:17 1 -1.7 81 1031.2
03:26 1 -1.5 82 1031.2
03:37 0.9 -1.6 82 1031.2
03:47 0.8 -1.7 82 1031.2
03:57 0.8 -1.7 82 1031.3
04:07 0.7 -1.8 82 1031.3
04:17 0.7 -1.8 82 1031.1
04:28 0.6 -1.9 82 1031.1
04:37 0.6 -1.7 83 1031.2
04:47 0.5 -1.8 83 1031.1
04:57 0.4 -1.9 83 1031.1
05:08 0.3 -2 83 1031.2
05:18 0.3 -2 83 1031
05:27 0.3 -1.8 84 1031.1
05:38 0.4 -1.8 84 1031.1
05:48 0.4 -1.8 84 1031.1
05:57 0.5 -1.8 83 1031
06:09 0.5 -1.8 83 1030.8
06:17 0.5 -1.8 83 1030.6
06:28 0.5 -2 82 1030.5
06:38 0.5 -2 82 1030.4
06:49 0.5 -2 82 1030.4
06:58 0.4 -2 82 1030.5
07:08 0.4 -2.2 81 1030.5
07:18 0.4 -2.2 81 1030.6
07:29 0.4 -2.2 81 1030.6
07:39 0.4 -2.2 81 1030.7
07:49 0.3 -2.3 81 1030.8
07:59 0.3 -2.3 81 1030.8
08:09 0.3 -2.3 81 1030.9
08:19 0.4 -2.2 81 1031
08:30 0.4 -2.3 80 1030.9
08:39 0.5 -2.2 80 1030.8
08:49 0.6 -2.2 80 1030.8
08:59 0.8 -2 80 1030.8
09:10 1 -1.8 80 1030.6
09:20 1.2 -1.6 80 1030.4
09:29 1.5 -1.5 79 1030.3
09:40 1.8 -1.4 78 1030.3
09:50 2.2 -1.1 78 1030.2
10:00 2.5 -1.1 76 1030.2
10:10 2.9 -0.8 76 1030.2
10:20 3.2 -0.7 75 1030.2
10:30 3.6 -0.5 74 1030.2
10:40 4 -0.2 74 1030.3
10:51 4.3 -0.1 73 1030.4
11:01 4.7 0.3 73 1030.5
11:10 5.1 0.5 72 1030.6
11:20 5.5 0.9 72 1030.4
11:31 5.9 0.7 69 1030.2
11:41 6.2 0.7 68 1030
11:50 6.5 0.8 67 1029.7
12:01 6.9 1 66 1029.6
12:10 7.1 1 65 1029.5
12:21 7.3 1.2 65 1029.5
12:31 7.6 1.2 64 1029.2
12:41 7.8 1.2 63 1029.1
12:51 8 1.2 62 1029
13:01 8.3 1.7 63 1029.1
13:12 8.5 1.4 61 1028.9
13:21 8.7 1.4 60 1028.8
13:31 8.9 1.6 60 1028.7
13:42 9 1.2 58 1028.7
13:52 9.2 1.6 59 1028.6
14:11 9.5 1.7 58 1028.6
14:32 9.8 1.9 58 1028.4
14:42 9.9 1.5 56 1028.4
14:52 9.9 1.5 56 1028.4
15:02 10 1.4 55 1028.3
15:12 10 0.9 53 1028.2
15:22 10 1.4 55 1028.2
15:33 9.8 1.2 55 1028
15:43 9.4 0.8 55 1028.1
15:51 9.1 0.5 55 1028.1
16:01 8.7 0.4 56 1028.1
16:13 8.3 0 56 1028
16:23 7.9 -0.3 56 1027.8
16:33 7.6 -0.5 56 1027.7
16:43 7.3 -0.8 56 1027.5
16:52 7 -1.2 55 1027.3
17:03 6.7 -1.3 56 1027.2
17:13 6.5 -1.4 56 1027.2
17:23 6.4 -1.5 56 1027.1
17:32 6.3 -1.8 55 1027.1
17:43 6 -1.9 56 1026.9
17:54 6 -2.1 55 1027
18:03 6 -1.9 56 1027
18:13 5.9 -1.9 56 1026.9
18:24 5.9 -1.7 57 1026.8
18:34 5.7 -1.9 57 1026.9
18:44 5.5 -1.9 58 1026.7
18:53 5.3 -2 58 1026.7
19:04 5.1 -2.2 58 1026.7
19:14 5 -2.3 58 1026.6
19:24 4.8 -2.4 58 1026.6
19:34 4.6 -2.8 57 1026.5
19:45 4.4 -3.2 56 1026.4
19:53 4.3 -3.3 56 1026.3
20:04 4.1 -3.4 56 1026.3
20:14 4 -3.3 57 1026.4
20:25 3.8 -3.5 57 1026.3
20:35 3.8 -3.3 58 1026.2
20:45 3.7 -3.4 58 1026.1
20:52 3.6 -3.4 58 1026
21:05 3.4 -3.8 57 1026
21:15 3.3 -4.1 56 1026
21:26 3.2 -4.4 55 1026
21:34 3.1 -4.5 55 1026.1
21:47 2.9 -5.1 53 1026.2
21:56 2.8 -5.2 53 1026.1
22:07 2.7 -5.7 51 1025.9
22:17 2.6 -5.6 52 1025.9
22:27 2.5 -5.6 52 1025.9
22:37 2.4 -5.7 52 1026
22:47 2.3 -5.8 52 1025.9
22:57 2.1 -6 52 1025.7
23:07 2 -6.1 52 1025.7
23:17 1.9 -6.4 51 1025.6
23:27 1.8 -6.2 52 1025.6
23:37 1.7 -6.5 51 1025.6
23:47 1.7 -6.3 52 1025.5
23:58 1.6 -6.6 51 1025.5

DAY STATISTIC

2018-11-18
TEMPERATURE
AVERAGE
3.7
HIGH
10.0
15:02
LOW
0.3
05:08
PRESSURE
AVERAGE
1029.1
HIGH
1032.1
00:05
LOW
1025.5
23:47
DEWPOINT
AVERAGE
-1.6
HIGH
1.9
14:32
LOW
-6.6
23:58
HUMIDITY
AVERAGE
68
HIGH
84
05:27
LOW
51
22:07
TEMPERATURE (°C)
LOW
0.3
HIGH
10.0
AVERAGE
3.7
PRESSURE (hpa)
LOW
1025.5
HIGH
1032.1
AVERAGE
1029.1
DEVICE